createdAt,value
2018-07-27T00:02:33.617Z,4.97
2018-07-27T00:07:36.982Z,5.30
2018-07-27T00:12:40.436Z,6.80
2018-07-27T00:17:43.755Z,5.93
2018-07-27T00:22:47.036Z,4.67
2018-07-27T00:27:50.371Z,7.47
2018-07-27T00:32:53.618Z,7.03
2018-07-27T00:37:56.872Z,5.30
2018-07-27T00:43:00.134Z,6.67
2018-07-27T00:48:03.430Z,5.63
2018-07-27T00:53:06.724Z,4.47
2018-07-27T00:58:10.060Z,6.77
2018-07-27T01:03:13.311Z,8.00
2018-07-27T01:08:16.775Z,10.07
2018-07-27T01:13:20.086Z,10.27
2018-07-27T01:18:23.350Z,8.33
2018-07-27T01:23:26.655Z,8.30
2018-07-27T01:28:29.964Z,6.70
2018-07-27T01:33:33.233Z,7.23
2018-07-27T01:38:36.561Z,5.53
2018-07-27T01:43:39.835Z,12.10
2018-07-27T01:48:43.095Z,12.93
2018-07-27T01:53:46.371Z,6.93
2018-07-27T01:58:49.629Z,9.47
2018-07-27T02:03:52.932Z,6.03
2018-07-27T02:08:56.324Z,8.90
2018-07-27T02:13:59.586Z,11.43
2018-07-27T02:19:02.860Z,7.73
2018-07-27T02:24:06.203Z,7.77
2018-07-27T02:29:09.552Z,5.90
2018-07-27T02:34:12.896Z,7.57
2018-07-27T02:39:16.166Z,8.27
2018-07-27T02:44:19.426Z,7.30
2018-07-27T02:49:22.718Z,14.87
2018-07-27T02:54:25.963Z,7.50
2018-07-27T02:59:29.201Z,5.37
2018-07-27T03:04:32.443Z,6.13
2018-07-27T03:09:35.694Z,4.33
2018-07-27T03:14:39.050Z,7.40
2018-07-27T03:19:42.287Z,4.40
2018-07-27T03:24:45.530Z,4.30
2018-07-27T03:29:48.786Z,4.53
2018-07-27T03:34:52.044Z,8.37
2018-07-27T03:39:55.619Z,4.30
2018-07-27T03:44:58.902Z,7.13
2018-07-27T03:50:02.151Z,4.23
2018-07-27T03:55:05.474Z,6.87
2018-07-27T04:00:10.459Z,4.67
2018-07-27T04:05:13.755Z,4.93
2018-07-27T04:10:17.059Z,5.50
2018-07-27T04:15:20.308Z,4.33
2018-07-27T04:20:23.570Z,7.13
2018-07-27T04:25:26.874Z,4.20
2018-07-27T04:30:30.180Z,4.27
2018-07-27T04:35:33.513Z,4.03
2018-07-27T04:40:37.920Z,7.03
2018-07-27T04:45:40.899Z,6.07
2018-07-27T04:50:44.183Z,9.97
2018-07-27T04:55:47.430Z,6.23
2018-07-27T05:00:50.770Z,6.23
2018-07-27T05:05:54.180Z,6.33
2018-07-27T05:10:57.496Z,4.73
2018-07-27T05:16:00.791Z,7.27
2018-07-27T05:21:04.043Z,6.80
2018-07-27T05:26:07.376Z,5.53
2018-07-27T05:31:10.842Z,4.97
2018-07-27T05:36:14.132Z,8.30
2018-07-27T05:41:17.636Z,3.70
2018-07-27T05:46:21.034Z,5.77
2018-07-27T05:51:24.292Z,7.13
2018-07-27T05:56:27.628Z,5.87
2018-07-27T06:01:30.965Z,6.03
2018-07-27T06:06:34.242Z,4.37
2018-07-27T06:11:37.563Z,5.97
2018-07-27T06:16:40.863Z,5.40
2018-07-27T06:21:44.111Z,7.07
2018-07-27T06:26:47.396Z,3.53
2018-07-27T06:31:50.733Z,5.50
2018-07-27T06:36:54.148Z,6.17
2018-07-27T06:41:58.076Z,4.87
2018-07-27T06:47:01.471Z,4.40
2018-07-27T06:52:04.829Z,3.80
2018-07-27T06:57:08.164Z,4.07
2018-07-27T07:02:11.880Z,5.37
2018-07-27T07:07:15.194Z,10.13
2018-07-27T07:12:18.539Z,11.47
2018-07-27T07:17:21.824Z,11.87
2018-07-27T07:22:25.170Z,4.80
2018-07-27T07:27:28.503Z,4.10
2018-07-27T07:32:31.750Z,7.00
2018-07-27T07:37:35.024Z,10.37
2018-07-27T07:42:38.368Z,6.93
2018-07-27T07:47:41.714Z,4.53
2018-07-27T07:52:45.015Z,9.50
2018-07-27T07:57:48.268Z,3.33
2018-07-27T08:02:51.586Z,7.57
2018-07-27T08:07:54.937Z,6.37
2018-07-27T08:12:58.296Z,6.23
2018-07-27T08:18:01.399Z,3.47
2018-07-27T08:23:04.673Z,4.90
2018-07-27T08:28:19.188Z,4.67
2018-07-27T08:33:22.460Z,6.33
2018-07-27T08:38:25.764Z,5.17
2018-07-27T08:43:29.110Z,8.40
2018-07-27T08:48:32.091Z,6.90
2018-07-27T08:53:35.416Z,8.60
2018-07-27T08:58:39.748Z,5.13
2018-07-27T09:03:43.003Z,4.57
2018-07-27T09:08:46.432Z,4.33
2018-07-27T09:13:50.089Z,4.50
2018-07-27T09:18:53.820Z,4.00
2018-07-27T09:23:57.158Z,4.27
2018-07-27T09:29:00.547Z,6.70
2018-07-27T09:34:03.913Z,4.60
2018-07-27T09:39:08.711Z,4.47
2018-07-27T09:44:11.984Z,6.40
2018-07-27T09:49:16.112Z,3.67
2018-07-27T09:54:19.349Z,3.63
2018-07-27T09:59:22.635Z,7.60
2018-07-27T10:04:25.981Z,8.37
2018-07-27T10:09:29.298Z,5.27
2018-07-27T10:14:32.602Z,5.60
2018-07-27T10:19:35.855Z,3.33
2018-07-27T10:24:39.325Z,3.33
2018-07-27T10:29:42.589Z,3.90
2018-07-27T10:34:45.902Z,4.13
2018-07-27T10:39:49.155Z,3.87
2018-07-27T10:44:52.440Z,3.53
2018-07-27T10:49:55.802Z,3.97
2018-07-27T10:54:59.113Z,4.43
2018-07-27T11:00:02.413Z,3.70
2018-07-27T11:05:05.824Z,3.57
2018-07-27T11:10:09.867Z,3.80
2018-07-27T11:15:12.992Z,3.00
2018-07-27T11:20:16.138Z,4.53
2018-07-27T11:25:19.427Z,5.23
2018-07-27T11:30:22.694Z,3.47
2018-07-27T11:35:26.089Z,5.27
2018-07-27T11:40:29.371Z,4.30
2018-07-27T11:45:32.627Z,3.73
2018-07-27T11:50:35.955Z,3.00
2018-07-27T11:55:39.191Z,4.83
2018-07-27T12:00:42.511Z,4.43
2018-07-27T12:05:45.765Z,3.77
2018-07-27T12:10:49.048Z,3.90
2018-07-27T12:15:52.242Z,4.23
2018-07-27T12:20:55.790Z,2.97
2018-07-27T12:25:59.077Z,3.53
2018-07-27T12:31:02.310Z,4.17
2018-07-27T12:36:05.887Z,3.50
2018-07-27T12:41:09.139Z,3.97
2018-07-27T12:46:12.418Z,4.07
2018-07-27T12:51:15.679Z,4.73
2018-07-27T12:56:18.918Z,3.22
2018-07-27T13:01:22.167Z,3.90
2018-07-27T13:06:25.642Z,4.30
2018-07-27T13:11:28.899Z,5.10
2018-07-27T13:16:32.167Z,3.70
2018-07-27T13:21:35.454Z,3.20
2018-07-27T13:26:38.707Z,4.20
2018-07-27T13:36:50.257Z,3.10
2018-07-27T13:41:53.495Z,2.93
2018-07-27T13:46:56.959Z,2.97
2018-07-27T13:52:00.366Z,2.53
2018-07-27T13:57:03.787Z,3.43
2018-07-27T14:02:07.367Z,4.10
2018-07-27T14:07:11.402Z,4.07
2018-07-27T14:12:14.649Z,4.37
2018-07-27T14:17:17.956Z,3.10
2018-07-27T14:22:21.210Z,4.50
2018-07-27T14:27:24.477Z,4.13
2018-07-27T14:32:27.758Z,3.57
2018-07-27T14:37:31.126Z,2.80
2018-07-27T14:42:34.453Z,2.87
2018-07-27T14:47:37.470Z,2.53
2018-07-27T14:52:41.116Z,3.00
2018-07-27T14:57:44.337Z,2.87
2018-07-27T15:02:47.578Z,2.80
2018-07-27T15:07:50.923Z,3.13
2018-07-27T15:12:54.155Z,3.60
2018-07-27T15:17:57.390Z,4.27
2018-07-27T15:23:00.670Z,4.40
2018-07-27T15:28:03.988Z,3.67
2018-07-27T15:33:07.278Z,3.47
2018-07-27T15:38:10.549Z,4.97
2018-07-27T15:43:13.790Z,3.87
2018-07-27T15:48:17.127Z,3.97
2018-07-27T15:53:20.415Z,4.60
2018-07-27T15:58:23.652Z,3.33
2018-07-27T16:03:26.885Z,3.50
2018-07-27T16:08:30.198Z,3.60
2018-07-27T16:13:33.438Z,2.70
2018-07-27T16:18:36.707Z,2.97
2018-07-27T16:23:39.946Z,5.63
2018-07-27T16:28:43.179Z,3.57
2018-07-27T16:33:46.424Z,4.83
2018-07-27T16:38:49.691Z,3.63
2018-07-27T16:43:52.918Z,3.33
2018-07-27T16:48:56.154Z,3.10
2018-07-27T16:53:59.444Z,3.20
2018-07-27T16:59:02.678Z,3.40
2018-07-27T17:04:06.050Z,2.60
2018-07-27T17:09:10.112Z,3.33
2018-07-27T17:14:13.351Z,3.13
2018-07-27T17:19:16.612Z,3.00
2018-07-27T17:24:19.974Z,4.13
2018-07-27T17:29:23.224Z,3.83
2018-07-27T17:34:26.462Z,4.43
2018-07-27T17:39:29.729Z,3.70
2018-07-27T17:44:32.973Z,2.50
2018-07-27T17:49:36.218Z,2.50
2018-07-27T17:54:39.470Z,2.90
2018-07-27T17:59:42.866Z,2.90
2018-07-27T18:04:46.123Z,3.57
2018-07-27T18:09:49.411Z,3.47
2018-07-27T18:14:52.630Z,4.30
2018-07-27T18:19:55.896Z,2.60
2018-07-27T18:24:59.327Z,2.57
2018-07-27T18:30:02.679Z,2.50
2018-07-27T18:35:06.514Z,3.97
2018-07-27T18:40:10.118Z,3.80
2018-07-27T18:45:13.381Z,4.07
2018-07-27T18:50:16.666Z,3.27
2018-07-27T18:55:19.930Z,3.63
2018-07-27T19:00:23.354Z,4.67
2018-07-27T19:05:26.648Z,5.17
2018-07-27T19:10:29.910Z,5.03
2018-07-27T19:15:33.150Z,3.53
2018-07-27T19:20:36.430Z,2.87
2018-07-27T19:25:40.535Z,3.63
2018-07-27T19:30:43.844Z,2.50
2018-07-27T19:35:47.055Z,7.60
2018-07-27T19:40:50.306Z,5.30
2018-07-27T19:45:53.737Z,6.23
2018-07-27T19:50:57.667Z,7.33
2018-07-27T19:56:00.979Z,8.03
2018-07-27T20:01:04.273Z,13.97
2018-07-27T20:06:07.534Z,12.93
2018-07-27T20:11:10.803Z,13.03
2018-07-27T20:16:14.069Z,11.67
2018-07-27T20:21:17.470Z,14.03
2018-07-27T20:26:20.758Z,5.70
2018-07-27T20:31:24.051Z,3.47
2018-07-27T20:36:27.318Z,4.20
2018-07-27T20:41:30.589Z,2.77
2018-07-27T20:46:33.835Z,3.57
2018-07-27T20:51:37.123Z,5.70
2018-07-27T20:56:40.514Z,6.80
2018-07-27T21:01:43.758Z,3.03
2018-07-27T21:06:47.003Z,9.53
2018-07-27T21:11:50.334Z,4.73
2018-07-27T21:16:53.309Z,3.20
2018-07-27T21:21:56.599Z,4.13
2018-07-27T21:27:01.043Z,3.53
2018-07-27T21:32:04.318Z,3.33
2018-07-27T21:37:08.769Z,3.53
2018-07-27T21:42:12.256Z,3.37
2018-07-27T21:47:15.571Z,2.77
2018-07-27T21:52:18.903Z,3.17
2018-07-27T21:57:22.203Z,4.00
2018-07-27T22:02:25.465Z,3.60
2018-07-27T22:07:28.766Z,3.47
2018-07-27T22:12:32.027Z,3.40
2018-07-27T22:17:35.313Z,3.40
2018-07-27T22:22:38.554Z,4.93
2018-07-27T22:27:41.917Z,3.17
2018-07-27T22:32:45.259Z,4.07
2018-07-27T22:37:48.524Z,3.50
2018-07-27T22:42:51.895Z,3.97
2018-07-27T22:47:55.183Z,3.80
2018-07-27T22:52:58.459Z,3.60
2018-07-27T22:58:01.787Z,3.50
2018-07-27T23:03:05.117Z,3.60
2018-07-27T23:08:08.427Z,3.63
2018-07-27T23:13:11.638Z,3.77
2018-07-27T23:18:14.903Z,3.97
2018-07-27T23:23:18.141Z,3.33
2018-07-27T23:28:21.413Z,5.00
2018-07-27T23:33:24.660Z,3.53
2018-07-27T23:38:27.954Z,5.27
2018-07-27T23:43:31.219Z,4.17
2018-07-27T23:48:34.490Z,3.90
2018-07-27T23:53:37.861Z,4.67
2018-07-27T23:58:41.186Z,3.40
